sensor_id;sensor_type;location;lat;lon;timestamp;P1;durP1;ratioP1;P2;durP2;ratioP2
68315;SDS011;55508;54.368;18.406;2022-10-19T00:01:04;7.82;;;1.77;;
68315;SDS011;55508;54.368;18.406;2022-10-19T00:03:34;7.35;;;1.65;;
68315;SDS011;55508;54.368;18.406;2022-10-19T00:09:00;9.02;;;1.90;;
68315;SDS011;55508;54.368;18.406;2022-10-19T00:11:32;9.80;;;1.63;;
68315;SDS011;55508;54.368;18.406;2022-10-19T00:14:00;6.30;;;1.73;;
68315;SDS011;55508;54.368;18.406;2022-10-19T00:16:28;5.25;;;1.10;;
68315;SDS011;55508;54.368;18.406;2022-10-19T00:18:58;6.00;;;1.35;;
68315;SDS011;55508;54.368;18.406;2022-10-19T00:21:26;6.30;;;1.35;;
68315;SDS011;55508;54.368;18.406;2022-10-19T00:23:54;9.05;;;1.50;;
68315;SDS011;55508;54.368;18.406;2022-10-19T00:26:21;8.50;;;1.70;;
68315;SDS011;55508;54.368;18.406;2022-10-19T00:28:48;6.65;;;1.33;;
68315;SDS011;55508;54.368;18.406;2022-10-19T00:31:16;7.10;;;1.75;;
68315;SDS011;55508;54.368;18.406;2022-10-19T00:33:44;4.97;;;1.38;;
68315;SDS011;55508;54.368;18.406;2022-10-19T00:36:16;7.63;;;2.08;;
68315;SDS011;55508;54.368;18.406;2022-10-19T00:38:51;4.90;;;1.65;;
68315;SDS011;55508;54.368;18.406;2022-10-19T00:41:20;5.95;;;1.35;;
68315;SDS011;55508;54.368;18.406;2022-10-19T00:43:49;11.35;;;1.65;;
68315;SDS011;55508;54.368;18.406;2022-10-19T00:46:17;8.70;;;1.63;;
68315;SDS011;55508;54.368;18.406;2022-10-19T00:48:44;5.15;;;1.33;;
68315;SDS011;55508;54.368;18.406;2022-10-19T00:51:12;6.65;;;1.73;;
68315;SDS011;55508;54.368;18.406;2022-10-19T00:53:39;8.43;;;1.85;;
68315;SDS011;55508;54.368;18.406;2022-10-19T00:56:08;3.00;;;0.88;;
68315;SDS011;55508;54.368;18.406;2022-10-19T00:58:37;2.65;;;0.98;;
68315;SDS011;55508;54.368;18.406;2022-10-19T01:01:05;2.85;;;0.95;;
68315;SDS011;55508;54.368;18.406;2022-10-19T01:03:35;2.92;;;1.02;;
68315;SDS011;55508;54.368;18.406;2022-10-19T01:06:02;4.07;;;1.00;;
68315;SDS011;55508;54.368;18.406;2022-10-19T01:08:29;6.05;;;1.33;;
68315;SDS011;55508;54.368;18.406;2022-10-19T01:11:03;3.35;;;0.88;;
68315;SDS011;55508;54.368;18.406;2022-10-19T01:39:37;4.22;;;1.00;;
68315;SDS011;55508;54.368;18.406;2022-10-19T01:42:16;5.28;;;0.98;;
68315;SDS011;55508;54.368;18.406;2022-10-19T01:50:12;2.78;;;0.90;;
68315;SDS011;55508;54.368;18.406;2022-10-19T01:52:42;3.00;;;0.70;;
68315;SDS011;55508;54.368;18.406;2022-10-19T01:55:10;4.00;;;0.82;;
68315;SDS011;55508;54.368;18.406;2022-10-19T01:57:49;3.20;;;0.82;;
68315;SDS011;55508;54.368;18.406;2022-10-19T02:00:19;3.40;;;0.70;;
68315;SDS011;55508;54.368;18.406;2022-10-19T02:02:49;3.78;;;0.75;;
68315;SDS011;55508;54.368;18.406;2022-10-19T02:05:19;2.03;;;0.32;;
68315;SDS011;55508;54.368;18.406;2022-10-19T02:07:48;3.47;;;0.70;;
68315;SDS011;55508;54.368;18.406;2022-10-19T02:10:19;3.40;;;0.77;;
68315;SDS011;55508;54.368;18.406;2022-10-19T02:12:46;3.10;;;0.82;;
68315;SDS011;55508;54.368;18.406;2022-10-19T02:15:14;4.80;;;1.00;;
68315;SDS011;55508;54.368;18.406;2022-10-19T02:17:46;5.28;;;1.00;;
68315;SDS011;55508;54.368;18.406;2022-10-19T02:20:15;5.82;;;0.90;;
68315;SDS011;55508;54.368;18.406;2022-10-19T02:22:43;4.50;;;0.77;;
68315;SDS011;55508;54.368;18.406;2022-10-19T02:25:10;3.42;;;0.93;;
68315;SDS011;55508;54.368;18.406;2022-10-19T02:27:38;4.57;;;0.70;;
68315;SDS011;55508;54.368;18.406;2022-10-19T02:30:10;7.38;;;1.20;;
68315;SDS011;55508;54.368;18.406;2022-10-19T02:32:39;5.38;;;0.77;;
68315;SDS011;55508;54.368;18.406;2022-10-19T02:35:06;4.03;;;1.05;;
68315;SDS011;55508;54.368;18.406;2022-10-19T02:37:34;7.40;;;1.27;;
68315;SDS011;55508;54.368;18.406;2022-10-19T02:40:02;4.70;;;0.70;;
68315;SDS011;55508;54.368;18.406;2022-10-19T02:42:34;2.88;;;0.88;;
68315;SDS011;55508;54.368;18.406;2022-10-19T02:45:27;1.23;;;0.50;;
68315;SDS011;55508;54.368;18.406;2022-10-19T02:50:28;2.35;;;0.60;;
68315;SDS011;55508;54.368;18.406;2022-10-19T02:52:56;2.65;;;0.68;;
68315;SDS011;55508;54.368;18.406;2022-10-19T02:55:24;2.58;;;0.55;;
68315;SDS011;55508;54.368;18.406;2022-10-19T02:57:51;2.35;;;0.52;;
68315;SDS011;55508;54.368;18.406;2022-10-19T03:00:19;2.13;;;0.70;;
68315;SDS011;55508;54.368;18.406;2022-10-19T03:02:46;2.22;;;0.60;;
68315;SDS011;55508;54.368;18.406;2022-10-19T03:05:13;2.10;;;0.60;;
68315;SDS011;55508;54.368;18.406;2022-10-19T03:07:40;3.05;;;0.63;;
68315;SDS011;55508;54.368;18.406;2022-10-19T03:10:08;1.25;;;0.50;;
68315;SDS011;55508;54.368;18.406;2022-10-19T03:12:35;3.10;;;0.77;;
68315;SDS011;55508;54.368;18.406;2022-10-19T03:15:02;2.13;;;1.05;;
68315;SDS011;55508;54.368;18.406;2022-10-19T03:17:30;2.30;;;0.90;;
68315;SDS011;55508;54.368;18.406;2022-10-19T03:19:57;2.17;;;0.80;;
68315;SDS011;55508;54.368;18.406;2022-10-19T03:22:24;1.25;;;0.60;;
68315;SDS011;55508;54.368;18.406;2022-10-19T03:24:51;3.58;;;0.85;;
68315;SDS011;55508;54.368;18.406;2022-10-19T03:27:18;2.33;;;0.93;;
68315;SDS011;55508;54.368;18.406;2022-10-19T03:29:45;1.95;;;0.77;;
68315;SDS011;55508;54.368;18.406;2022-10-19T03:32:12;2.17;;;0.70;;
68315;SDS011;55508;54.368;18.406;2022-10-19T03:34:39;5.22;;;0.60;;
68315;SDS011;55508;54.368;18.406;2022-10-19T03:37:06;1.92;;;1.05;;
68315;SDS011;55508;54.368;18.406;2022-10-19T03:39:34;5.50;;;1.13;;
68315;SDS011;55508;54.368;18.406;2022-10-19T03:42:01;3.22;;;0.73;;
68315;SDS011;55508;54.368;18.406;2022-10-19T03:44:28;2.30;;;0.63;;
68315;SDS011;55508;54.368;18.406;2022-10-19T03:46:55;1.35;;;0.68;;
68315;SDS011;55508;54.368;18.406;2022-10-19T03:49:22;0.88;;;0.57;;
68315;SDS011;55508;54.368;18.406;2022-10-19T03:51:49;0.90;;;0.47;;
68315;SDS011;55508;54.368;18.406;2022-10-19T03:54:16;3.28;;;0.70;;
68315;SDS011;55508;54.368;18.406;2022-10-19T03:56:43;2.53;;;0.47;;
68315;SDS011;55508;54.368;18.406;2022-10-19T03:59:11;2.00;;;0.52;;
68315;SDS011;55508;54.368;18.406;2022-10-19T04:01:41;1.13;;;0.57;;
68315;SDS011;55508;54.368;18.406;2022-10-19T04:04:11;1.75;;;0.60;;
68315;SDS011;55508;54.368;18.406;2022-10-19T04:06:41;1.55;;;0.55;;
68315;SDS011;55508;54.368;18.406;2022-10-19T04:09:10;3.22;;;0.50;;
68315;SDS011;55508;54.368;18.406;2022-10-19T04:11:39;0.85;;;0.50;;
68315;SDS011;55508;54.368;18.406;2022-10-19T04:14:06;0.70;;;0.50;;
68315;SDS011;55508;54.368;18.406;2022-10-19T04:16:33;2.72;;;0.75;;
68315;SDS011;55508;54.368;18.406;2022-10-19T04:19:00;2.30;;;0.60;;
68315;SDS011;55508;54.368;18.406;2022-10-19T04:21:29;1.95;;;0.90;;
68315;SDS011;55508;54.368;18.406;2022-10-19T04:26:31;1.92;;;0.60;;
68315;SDS011;55508;54.368;18.406;2022-10-19T04:28:59;3.40;;;0.88;;
68315;SDS011;55508;54.368;18.406;2022-10-19T04:31:27;1.48;;;0.47;;
68315;SDS011;55508;54.368;18.406;2022-10-19T04:33:55;3.33;;;0.73;;
68315;SDS011;55508;54.368;18.406;2022-10-19T04:36:22;3.58;;;0.60;;
68315;SDS011;55508;54.368;18.406;2022-10-19T04:38:49;1.10;;;0.60;;
68315;SDS011;55508;54.368;18.406;2022-10-19T04:41:18;1.25;;;0.50;;
68315;SDS011;55508;54.368;18.406;2022-10-19T04:43:46;0.88;;;0.70;;
68315;SDS011;55508;54.368;18.406;2022-10-19T04:46:15;3.78;;;2.13;;
68315;SDS011;55508;54.368;18.406;2022-10-19T04:48:44;1.58;;;1.40;;
68315;SDS011;55508;54.368;18.406;2022-10-19T04:51:12;1.65;;;0.80;;
68315;SDS011;55508;54.368;18.406;2022-10-19T04:53:41;1.40;;;0.65;;
68315;SDS011;55508;54.368;18.406;2022-10-19T04:56:10;3.28;;;0.50;;
68315;SDS011;55508;54.368;18.406;2022-10-19T04:58:42;1.52;;;0.60;;
68315;SDS011;55508;54.368;18.406;2022-10-19T05:01:10;3.17;;;0.85;;
68315;SDS011;55508;54.368;18.406;2022-10-19T05:06:09;2.15;;;0.80;;
68315;SDS011;55508;54.368;18.406;2022-10-19T05:08:37;1.48;;;0.60;;
68315;SDS011;55508;54.368;18.406;2022-10-19T05:11:08;1.27;;;0.50;;
68315;SDS011;55508;54.368;18.406;2022-10-19T05:13:37;2.55;;;0.70;;
68315;SDS011;55508;54.368;18.406;2022-10-19T05:16:05;3.60;;;0.93;;
68315;SDS011;55508;54.368;18.406;2022-10-19T05:18:35;2.25;;;0.90;;
68315;SDS011;55508;54.368;18.406;2022-10-19T05:21:05;1.63;;;0.57;;
68315;SDS011;55508;54.368;18.406;2022-10-19T05:23:37;1.25;;;0.73;;
68315;SDS011;55508;54.368;18.406;2022-10-19T05:26:06;2.45;;;1.05;;
68315;SDS011;55508;54.368;18.406;2022-10-19T05:28:34;1.85;;;0.52;;
68315;SDS011;55508;54.368;18.406;2022-10-19T05:31:09;1.88;;;0.57;;
68315;SDS011;55508;54.368;18.406;2022-10-19T05:33:38;1.52;;;0.70;;
68315;SDS011;55508;54.368;18.406;2022-10-19T05:36:09;1.83;;;0.60;;
68315;SDS011;55508;54.368;18.406;2022-10-19T05:38:41;1.83;;;0.77;;
68315;SDS011;55508;54.368;18.406;2022-10-19T05:41:09;2.33;;;0.60;;
68315;SDS011;55508;54.368;18.406;2022-10-19T05:43:36;1.52;;;0.70;;
68315;SDS011;55508;54.368;18.406;2022-10-19T05:46:04;2.35;;;0.80;;
68315;SDS011;55508;54.368;18.406;2022-10-19T05:48:33;1.75;;;0.70;;
68315;SDS011;55508;54.368;18.406;2022-10-19T05:51:02;1.90;;;0.65;;
68315;SDS011;55508;54.368;18.406;2022-10-19T05:53:31;1.77;;;0.63;;
68315;SDS011;55508;54.368;18.406;2022-10-19T05:55:58;2.53;;;1.15;;
68315;SDS011;55508;54.368;18.406;2022-10-19T05:58:26;1.92;;;0.68;;
68315;SDS011;55508;54.368;18.406;2022-10-19T06:00:53;1.05;;;0.52;;
68315;SDS011;55508;54.368;18.406;2022-10-19T06:03:21;3.00;;;0.80;;
68315;SDS011;55508;54.368;18.406;2022-10-19T06:05:49;1.35;;;0.50;;
68315;SDS011;55508;54.368;18.406;2022-10-19T06:08:17;3.35;;;0.50;;
68315;SDS011;55508;54.368;18.406;2022-10-19T06:10:45;1.70;;;0.50;;
68315;SDS011;55508;54.368;18.406;2022-10-19T06:13:13;0.98;;;0.60;;
68315;SDS011;55508;54.368;18.406;2022-10-19T06:15:41;1.75;;;0.80;;
68315;SDS011;55508;54.368;18.406;2022-10-19T06:18:08;2.67;;;0.70;;
68315;SDS011;55508;54.368;18.406;2022-10-19T06:20:37;1.10;;;0.55;;
68315;SDS011;55508;54.368;18.406;2022-10-19T06:23:06;3.13;;;0.75;;
68315;SDS011;55508;54.368;18.406;2022-10-19T06:25:34;1.67;;;0.63;;
68315;SDS011;55508;54.368;18.406;2022-10-19T06:28:01;1.50;;;0.63;;
68315;SDS011;55508;54.368;18.406;2022-10-19T06:30:29;3.72;;;0.90;;
68315;SDS011;55508;54.368;18.406;2022-10-19T06:32:57;2.72;;;1.08;;
68315;SDS011;55508;54.368;18.406;2022-10-19T06:35:24;2.75;;;1.10;;
68315;SDS011;55508;54.368;18.406;2022-10-19T06:37:51;3.80;;;1.52;;
68315;SDS011;55508;54.368;18.406;2022-10-19T06:40:18;4.72;;;1.13;;
68315;SDS011;55508;54.368;18.406;2022-10-19T06:42:45;3.97;;;1.00;;
68315;SDS011;55508;54.368;18.406;2022-10-19T06:45:12;1.90;;;0.80;;
68315;SDS011;55508;54.368;18.406;2022-10-19T06:47:39;6.40;;;1.00;;
68315;SDS011;55508;54.368;18.406;2022-10-19T06:50:07;4.10;;;0.73;;
68315;SDS011;55508;54.368;18.406;2022-10-19T06:52:34;2.67;;;0.73;;
68315;SDS011;55508;54.368;18.406;2022-10-19T06:55:02;3.30;;;0.80;;
68315;SDS011;55508;54.368;18.406;2022-10-19T06:57:29;0.98;;;0.47;;
68315;SDS011;55508;54.368;18.406;2022-10-19T06:59:56;1.15;;;0.30;;
68315;SDS011;55508;54.368;18.406;2022-10-19T07:02:23;1.42;;;0.40;;
68315;SDS011;55508;54.368;18.406;2022-10-19T07:04:50;1.15;;;0.77;;
68315;SDS011;55508;54.368;18.406;2022-10-19T07:07:18;2.05;;;0.57;;
68315;SDS011;55508;54.368;18.406;2022-10-19T07:09:46;1.85;;;0.75;;
68315;SDS011;55508;54.368;18.406;2022-10-19T07:12:13;3.05;;;1.38;;
68315;SDS011;55508;54.368;18.406;2022-10-19T07:14:40;2.83;;;0.90;;
68315;SDS011;55508;54.368;18.406;2022-10-19T07:17:09;2.10;;;0.85;;
68315;SDS011;55508;54.368;18.406;2022-10-19T07:19:37;1.50;;;0.60;;
68315;SDS011;55508;54.368;18.406;2022-10-19T07:22:04;0.55;;;0.40;;
68315;SDS011;55508;54.368;18.406;2022-10-19T07:24:31;1.88;;;0.50;;
68315;SDS011;55508;54.368;18.406;2022-10-19T07:26:58;1.10;;;0.50;;
68315;SDS011;55508;54.368;18.406;2022-10-19T07:29:25;2.25;;;0.60;;
68315;SDS011;55508;54.368;18.406;2022-10-19T07:31:52;0.98;;;0.52;;
68315;SDS011;55508;54.368;18.406;2022-10-19T07:34:19;2.33;;;0.45;;
68315;SDS011;55508;54.368;18.406;2022-10-19T07:36:52;3.33;;;0.50;;
68315;SDS011;55508;54.368;18.406;2022-10-19T07:39:20;0.95;;;0.45;;
68315;SDS011;55508;54.368;18.406;2022-10-19T07:41:47;1.30;;;0.60;;
68315;SDS011;55508;54.368;18.406;2022-10-19T07:44:14;0.73;;;0.45;;
68315;SDS011;55508;54.368;18.406;2022-10-19T07:46:41;2.67;;;0.60;;
68315;SDS011;55508;54.368;18.406;2022-10-19T07:49:09;1.00;;;0.50;;
68315;SDS011;55508;54.368;18.406;2022-10-19T07:51:42;0.93;;;0.50;;
68315;SDS011;55508;54.368;18.406;2022-10-19T07:54:09;1.83;;;0.50;;
68315;SDS011;55508;54.368;18.406;2022-10-19T07:56:36;0.75;;;0.60;;
68315;SDS011;55508;54.368;18.406;2022-10-19T07:59:03;2.08;;;0.45;;
68315;SDS011;55508;54.368;18.406;2022-10-19T08:01:32;1.25;;;0.60;;
68315;SDS011;55508;54.368;18.406;2022-10-19T08:04:00;0.90;;;0.50;;
68315;SDS011;55508;54.368;18.406;2022-10-19T08:06:48;1.60;;;0.52;;
68315;SDS011;55508;54.368;18.406;2022-10-19T08:09:15;3.60;;;0.70;;
68315;SDS011;55508;54.368;18.406;2022-10-19T08:12:02;0.40;;;0.30;;
68315;SDS011;55508;54.368;18.406;2022-10-19T08:14:31;1.55;;;0.70;;
68315;SDS011;55508;54.368;18.406;2022-10-19T08:16:58;5.35;;;0.70;;
68315;SDS011;55508;54.368;18.406;2022-10-19T08:19:25;1.55;;;0.55;;
68315;SDS011;55508;54.368;18.406;2022-10-19T08:21:53;1.17;;;0.60;;
68315;SDS011;55508;54.368;18.406;2022-10-19T08:24:20;4.40;;;0.90;;
68315;SDS011;55508;54.368;18.406;2022-10-19T08:26:47;1.35;;;0.70;;
68315;SDS011;55508;54.368;18.406;2022-10-19T08:29:19;1.83;;;0.50;;
68315;SDS011;55508;54.368;18.406;2022-10-19T08:31:51;2.70;;;0.70;;
68315;SDS011;55508;54.368;18.406;2022-10-19T08:34:18;4.13;;;0.60;;
68315;SDS011;55508;54.368;18.406;2022-10-19T08:36:45;1.50;;;0.50;;
68315;SDS011;55508;54.368;18.406;2022-10-19T08:39:13;1.13;;;0.50;;
68315;SDS011;55508;54.368;18.406;2022-10-19T08:52:41;3.25;;;0.63;;
68315;SDS011;55508;54.368;18.406;2022-10-19T08:55:15;1.60;;;0.30;;
68315;SDS011;55508;54.368;18.406;2022-10-19T08:58:02;1.20;;;0.70;;
68315;SDS011;55508;54.368;18.406;2022-10-19T09:03:36;2.33;;;0.50;;
68315;SDS011;55508;54.368;18.406;2022-10-19T09:06:31;2.28;;;0.40;;
68315;SDS011;55508;54.368;18.406;2022-10-19T09:09:03;3.08;;;0.40;;
68315;SDS011;55508;54.368;18.406;2022-10-19T09:11:33;1.85;;;0.40;;
68315;SDS011;55508;54.368;18.406;2022-10-19T09:16:32;1.13;;;0.50;;
68315;SDS011;55508;54.368;18.406;2022-10-19T09:19:01;1.40;;;0.52;;
68315;SDS011;55508;54.368;18.406;2022-10-19T09:22:31;2.50;;;0.40;;
68315;SDS011;55508;54.368;18.406;2022-10-19T09:27:03;1.60;;;0.50;;
68315;SDS011;55508;54.368;18.406;2022-10-19T09:32:13;1.83;;;0.30;;
68315;SDS011;55508;54.368;18.406;2022-10-19T09:34:50;1.00;;;0.40;;
68315;SDS011;55508;54.368;18.406;2022-10-19T09:37:22;1.30;;;0.60;;
68315;SDS011;55508;54.368;18.406;2022-10-19T09:39:52;4.70;;;0.85;;
68315;SDS011;55508;54.368;18.406;2022-10-19T09:42:25;1.92;;;0.45;;
68315;SDS011;55508;54.368;18.406;2022-10-19T09:45:00;1.38;;;0.55;;
68315;SDS011;55508;54.368;18.406;2022-10-19T09:47:33;0.45;;;0.30;;
68315;SDS011;55508;54.368;18.406;2022-10-19T09:50:06;0.60;;;0.25;;
68315;SDS011;55508;54.368;18.406;2022-10-19T09:52:42;1.95;;;0.52;;
68315;SDS011;55508;54.368;18.406;2022-10-19T09:57:45;1.15;;;0.40;;
68315;SDS011;55508;54.368;18.406;2022-10-19T10:00:25;0.90;;;0.57;;
68315;SDS011;55508;54.368;18.406;2022-10-19T10:02:58;3.20;;;0.73;;
68315;SDS011;55508;54.368;18.406;2022-10-19T10:05:32;5.65;;;0.45;;
68315;SDS011;55508;54.368;18.406;2022-10-19T10:08:02;1.83;;;0.50;;
68315;SDS011;55508;54.368;18.406;2022-10-19T10:10:34;1.92;;;0.40;;
68315;SDS011;55508;54.368;18.406;2022-10-19T10:13:04;1.98;;;0.30;;
68315;SDS011;55508;54.368;18.406;2022-10-19T10:15:53;1.70;;;0.30;;
68315;SDS011;55508;54.368;18.406;2022-10-19T10:18:22;0.47;;;0.30;;
68315;SDS011;55508;54.368;18.406;2022-10-19T10:21:10;0.57;;;0.40;;
68315;SDS011;55508;54.368;18.406;2022-10-19T10:23:41;1.27;;;0.40;;
68315;SDS011;55508;54.368;18.406;2022-10-19T10:26:17;0.82;;;0.40;;
68315;SDS011;55508;54.368;18.406;2022-10-19T10:28:46;1.33;;;0.43;;
68315;SDS011;55508;54.368;18.406;2022-10-19T10:31:17;1.17;;;0.45;;
68315;SDS011;55508;54.368;18.406;2022-10-19T10:33:55;1.00;;;0.30;;
68315;SDS011;55508;54.368;18.406;2022-10-19T10:36:48;2.40;;;0.40;;
68315;SDS011;55508;54.368;18.406;2022-10-19T10:39:16;0.70;;;0.30;;
68315;SDS011;55508;54.368;18.406;2022-10-19T10:41:44;2.33;;;0.30;;
68315;SDS011;55508;54.368;18.406;2022-10-19T10:44:15;1.52;;;0.65;;
68315;SDS011;55508;54.368;18.406;2022-10-19T10:46:52;1.23;;;0.45;;
68315;SDS011;55508;54.368;18.406;2022-10-19T10:49:22;0.95;;;0.28;;
68315;SDS011;55508;54.368;18.406;2022-10-19T10:52:09;1.63;;;0.50;;
68315;SDS011;55508;54.368;18.406;2022-10-19T10:54:38;2.20;;;0.50;;
68315;SDS011;55508;54.368;18.406;2022-10-19T10:57:10;0.50;;;0.32;;
68315;SDS011;55508;54.368;18.406;2022-10-19T11:10:59;0.75;;;0.20;;
68315;SDS011;55508;54.368;18.406;2022-10-19T11:13:39;2.03;;;0.55;;
68315;SDS011;55508;54.368;18.406;2022-10-19T11:16:12;1.65;;;0.60;;
68315;SDS011;55508;54.368;18.406;2022-10-19T11:18:49;0.98;;;0.70;;
68315;SDS011;55508;54.368;18.406;2022-10-19T11:32:01;1.35;;;0.32;;
68315;SDS011;55508;54.368;18.406;2022-10-19T11:48:09;3.25;;;1.38;;
68315;SDS011;55508;54.368;18.406;2022-10-19T11:56:48;0.90;;;0.75;;
68315;SDS011;55508;54.368;18.406;2022-10-19T12:14:47;1.95;;;0.50;;
68315;SDS011;55508;54.368;18.406;2022-10-19T12:17:25;1.38;;;0.40;;
68315;SDS011;55508;54.368;18.406;2022-10-19T12:19:57;1.10;;;0.35;;
68315;SDS011;55508;54.368;18.406;2022-10-19T12:22:28;1.02;;;0.35;;
68315;SDS011;55508;54.368;18.406;2022-10-19T12:24:59;1.50;;;0.40;;
68315;SDS011;55508;54.368;18.406;2022-10-19T12:27:39;2.28;;;0.52;;
68315;SDS011;55508;54.368;18.406;2022-10-19T12:35:38;1.60;;;0.50;;
68315;SDS011;55508;54.368;18.406;2022-10-19T12:46:53;2.20;;;0.75;;
68315;SDS011;55508;54.368;18.406;2022-10-19T12:51:59;1.13;;;0.50;;
68315;SDS011;55508;54.368;18.406;2022-10-19T12:54:28;1.90;;;0.57;;
68315;SDS011;55508;54.368;18.406;2022-10-19T12:56:57;1.85;;;0.50;;
68315;SDS011;55508;54.368;18.406;2022-10-19T13:01:57;1.50;;;0.50;;
68315;SDS011;55508;54.368;18.406;2022-10-19T13:04:29;1.60;;;0.40;;
68315;SDS011;55508;54.368;18.406;2022-10-19T13:09:33;0.88;;;0.43;;
68315;SDS011;55508;54.368;18.406;2022-10-19T13:14:58;1.48;;;0.57;;
68315;SDS011;55508;54.368;18.406;2022-10-19T13:28:00;1.00;;;0.30;;
68315;SDS011;55508;54.368;18.406;2022-10-19T13:38:28;1.27;;;0.30;;
68315;SDS011;55508;54.368;18.406;2022-10-19T13:46:43;0.93;;;0.40;;
68315;SDS011;55508;54.368;18.406;2022-10-19T14:11:37;0.88;;;0.47;;
68315;SDS011;55508;54.368;18.406;2022-10-19T14:14:13;1.52;;;0.40;;
68315;SDS011;55508;54.368;18.406;2022-10-19T14:16:46;1.35;;;0.55;;
68315;SDS011;55508;54.368;18.406;2022-10-19T14:20:03;1.25;;;0.50;;
68315;SDS011;55508;54.368;18.406;2022-10-19T14:22:19;2.30;;;0.82;;
68315;SDS011;55508;54.368;18.406;2022-10-19T14:24:51;0.65;;;0.30;;
68315;SDS011;55508;54.368;18.406;2022-10-19T14:46:46;2.33;;;0.80;;
68315;SDS011;55508;54.368;18.406;2022-10-19T14:49:14;1.70;;;0.77;;
68315;SDS011;55508;54.368;18.406;2022-10-19T14:51:45;2.47;;;1.10;;
68315;SDS011;55508;54.368;18.406;2022-10-19T14:54:34;3.08;;;1.10;;
68315;SDS011;55508;54.368;18.406;2022-10-19T14:57:09;2.25;;;1.13;;
68315;SDS011;55508;54.368;18.406;2022-10-19T15:05:01;5.45;;;1.00;;
68315;SDS011;55508;54.368;18.406;2022-10-19T15:07:34;2.30;;;0.90;;
68315;SDS011;55508;54.368;18.406;2022-10-19T15:10:27;3.65;;;1.23;;
68315;SDS011;55508;54.368;18.406;2022-10-19T15:13:02;3.00;;;1.73;;
68315;SDS011;55508;54.368;18.406;2022-10-19T15:15:31;4.82;;;2.20;;
68315;SDS011;55508;54.368;18.406;2022-10-19T15:20:29;5.65;;;2.33;;
68315;SDS011;55508;54.368;18.406;2022-10-19T15:28:45;3.08;;;2.20;;
68315;SDS011;55508;54.368;18.406;2022-10-19T15:31:15;3.33;;;2.10;;
68315;SDS011;55508;54.368;18.406;2022-10-19T15:33:47;4.25;;;2.53;;
68315;SDS011;55508;54.368;18.406;2022-10-19T15:36:19;4.18;;;2.33;;
68315;SDS011;55508;54.368;18.406;2022-10-19T15:38:58;6.30;;;1.98;;
68315;SDS011;55508;54.368;18.406;2022-10-19T15:41:46;2.05;;;1.85;;
68315;SDS011;55508;54.368;18.406;2022-10-19T15:52:33;4.63;;;3.35;;
68315;SDS011;55508;54.368;18.406;2022-10-19T15:55:00;3.40;;;2.33;;
68315;SDS011;55508;54.368;18.406;2022-10-19T15:57:31;3.13;;;1.85;;
68315;SDS011;55508;54.368;18.406;2022-10-19T16:00:06;3.78;;;1.92;;
68315;SDS011;55508;54.368;18.406;2022-10-19T16:02:37;2.15;;;1.73;;
68315;SDS011;55508;54.368;18.406;2022-10-19T16:05:04;4.63;;;2.30;;
68315;SDS011;55508;54.368;18.406;2022-10-19T16:07:32;2.85;;;2.30;;
68315;SDS011;55508;54.368;18.406;2022-10-19T16:10:02;4.72;;;3.03;;
68315;SDS011;55508;54.368;18.406;2022-10-19T16:12:29;4.00;;;3.10;;
68315;SDS011;55508;54.368;18.406;2022-10-19T16:14:57;6.25;;;3.25;;
68315;SDS011;55508;54.368;18.406;2022-10-19T16:17:24;5.22;;;4.10;;
68315;SDS011;55508;54.368;18.406;2022-10-19T16:19:51;7.32;;;4.50;;
68315;SDS011;55508;54.368;18.406;2022-10-19T16:22:18;6.20;;;4.78;;
68315;SDS011;55508;54.368;18.406;2022-10-19T16:24:45;6.45;;;5.10;;
68315;SDS011;55508;54.368;18.406;2022-10-19T16:27:12;6.18;;;4.30;;
68315;SDS011;55508;54.368;18.406;2022-10-19T16:29:43;6.03;;;4.65;;
68315;SDS011;55508;54.368;18.406;2022-10-19T16:32:10;7.05;;;4.78;;
68315;SDS011;55508;54.368;18.406;2022-10-19T16:34:37;6.30;;;4.18;;
68315;SDS011;55508;54.368;18.406;2022-10-19T16:37:04;3.78;;;3.13;;
68315;SDS011;55508;54.368;18.406;2022-10-19T16:39:33;5.30;;;3.38;;
68315;SDS011;55508;54.368;18.406;2022-10-19T16:42:00;5.22;;;3.60;;
68315;SDS011;55508;54.368;18.406;2022-10-19T16:44:27;5.15;;;3.60;;
68315;SDS011;55508;54.368;18.406;2022-10-19T16:46:55;4.93;;;2.90;;
68315;SDS011;55508;54.368;18.406;2022-10-19T16:49:22;5.22;;;3.00;;
68315;SDS011;55508;54.368;18.406;2022-10-19T16:51:49;5.00;;;3.25;;
68315;SDS011;55508;54.368;18.406;2022-10-19T16:54:22;3.85;;;3.45;;
68315;SDS011;55508;54.368;18.406;2022-10-19T16:56:52;4.30;;;2.97;;
68315;SDS011;55508;54.368;18.406;2022-10-19T16:59:21;5.22;;;4.72;;
68315;SDS011;55508;54.368;18.406;2022-10-19T17:01:48;8.48;;;7.78;;
68315;SDS011;55508;54.368;18.406;2022-10-19T17:04:15;4.28;;;3.65;;
68315;SDS011;55508;54.368;18.406;2022-10-19T17:06:45;4.07;;;3.33;;
68315;SDS011;55508;54.368;18.406;2022-10-19T17:09:12;4.13;;;3.72;;
68315;SDS011;55508;54.368;18.406;2022-10-19T17:11:59;6.97;;;4.38;;
68315;SDS011;55508;54.368;18.406;2022-10-19T17:14:26;4.43;;;3.58;;
68315;SDS011;55508;54.368;18.406;2022-10-19T17:16:54;5.20;;;3.88;;
68315;SDS011;55508;54.368;18.406;2022-10-19T17:19:21;6.28;;;4.53;;
68315;SDS011;55508;54.368;18.406;2022-10-19T17:21:48;6.18;;;3.92;;
68315;SDS011;55508;54.368;18.406;2022-10-19T17:24:17;5.20;;;3.95;;
68315;SDS011;55508;54.368;18.406;2022-10-19T17:26:50;14.80;;;9.75;;
68315;SDS011;55508;54.368;18.406;2022-10-19T17:29:19;8.98;;;6.28;;
68315;SDS011;55508;54.368;18.406;2022-10-19T17:31:47;8.38;;;5.78;;
68315;SDS011;55508;54.368;18.406;2022-10-19T17:34:17;5.55;;;4.93;;
68315;SDS011;55508;54.368;18.406;2022-10-19T17:36:44;5.72;;;4.50;;
68315;SDS011;55508;54.368;18.406;2022-10-19T17:39:14;4.80;;;4.03;;
68315;SDS011;55508;54.368;18.406;2022-10-19T17:41:44;7.78;;;5.05;;
68315;SDS011;55508;54.368;18.406;2022-10-19T17:44:13;6.80;;;4.85;;
68315;SDS011;55508;54.368;18.406;2022-10-19T17:46:41;6.57;;;5.10;;
68315;SDS011;55508;54.368;18.406;2022-10-19T17:49:08;13.23;;;6.07;;
68315;SDS011;55508;54.368;18.406;2022-10-19T17:51:36;9.18;;;5.63;;
68315;SDS011;55508;54.368;18.406;2022-10-19T17:54:05;15.93;;;10.43;;
68315;SDS011;55508;54.368;18.406;2022-10-19T17:56:38;23.77;;;13.02;;
68315;SDS011;55508;54.368;18.406;2022-10-19T17:59:06;29.85;;;14.35;;
68315;SDS011;55508;54.368;18.406;2022-10-19T18:01:35;37.90;;;16.65;;
68315;SDS011;55508;54.368;18.406;2022-10-19T18:04:03;57.65;;;25.60;;
68315;SDS011;55508;54.368;18.406;2022-10-19T18:06:34;66.90;;;27.00;;
68315;SDS011;55508;54.368;18.406;2022-10-19T18:09:03;68.20;;;30.00;;
68315;SDS011;55508;54.368;18.406;2022-10-19T18:11:34;56.10;;;27.83;;
68315;SDS011;55508;54.368;18.406;2022-10-19T18:14:06;59.70;;;28.00;;
68315;SDS011;55508;54.368;18.406;2022-10-19T18:16:36;48.85;;;23.40;;
68315;SDS011;55508;54.368;18.406;2022-10-19T18:19:09;46.05;;;21.65;;
68315;SDS011;55508;54.368;18.406;2022-10-19T18:21:48;51.90;;;22.55;;
68315;SDS011;55508;54.368;18.406;2022-10-19T18:24:27;38.75;;;17.55;;
68315;SDS011;55508;54.368;18.406;2022-10-19T18:27:06;41.63;;;19.98;;
68315;SDS011;55508;54.368;18.406;2022-10-19T18:29:48;35.28;;;18.58;;
68315;SDS011;55508;54.368;18.406;2022-10-19T18:32:27;53.78;;;24.83;;
68315;SDS011;55508;54.368;18.406;2022-10-19T18:35:05;53.28;;;25.95;;
68315;SDS011;55508;54.368;18.406;2022-10-19T18:37:41;32.97;;;17.10;;
68315;SDS011;55508;54.368;18.406;2022-10-19T18:40:16;20.50;;;13.27;;
68315;SDS011;55508;54.368;18.406;2022-10-19T18:42:59;13.77;;;8.63;;
68315;SDS011;55508;54.368;18.406;2022-10-19T18:45:36;14.07;;;8.95;;
68315;SDS011;55508;54.368;18.406;2022-10-19T18:48:11;19.90;;;9.70;;